sensor_id;sensor_type;location;lat;lon;timestamp;temperature;humidity
72355;SHT30;60314;55.040;73.076;2022-07-15T00:01:52;20.86;75.80
72355;SHT30;60314;55.040;73.076;2022-07-15T00:04:19;20.88;75.17
72355;SHT30;60314;55.040;73.076;2022-07-15T00:06:46;20.80;73.96
72355;SHT30;60314;55.040;73.076;2022-07-15T00:09:13;20.76;74.17
72355;SHT30;60314;55.040;73.076;2022-07-15T00:11:39;20.55;75.17
72355;SHT30;60314;55.040;73.076;2022-07-15T00:14:06;20.25;76.59
72355;SHT30;60314;55.040;73.076;2022-07-15T00:16:33;20.34;76.53
72355;SHT30;60314;55.040;73.076;2022-07-15T00:18:59;20.28;76.73
72355;SHT30;60314;55.040;73.076;2022-07-15T00:21:26;20.01;78.15
72355;SHT30;60314;55.040;73.076;2022-07-15T00:23:53;19.97;78.16
72355;SHT30;60314;55.040;73.076;2022-07-15T00:26:19;20.16;78.12
72355;SHT30;60314;55.040;73.076;2022-07-15T00:28:46;20.08;78.72
72355;SHT30;60314;55.040;73.076;2022-07-15T00:31:13;20.27;80.60
72355;SHT30;60314;55.040;73.076;2022-07-15T00:33:40;20.59;79.39
72355;SHT30;60314;55.040;73.076;2022-07-15T00:36:07;20.92;79.59
72355;SHT30;60314;55.040;73.076;2022-07-15T00:38:34;21.19;78.00
72355;SHT30;60314;55.040;73.076;2022-07-15T00:41:01;21.02;78.64
72355;SHT30;60314;55.040;73.076;2022-07-15T00:43:28;20.79;78.30
72355;SHT30;60314;55.040;73.076;2022-07-15T00:45:59;21.00;78.03
72355;SHT30;60314;55.040;73.076;2022-07-15T00:48:26;20.88;79.50
72355;SHT30;60314;55.040;73.076;2022-07-15T00:51:00;20.88;78.09
72355;SHT30;60314;55.040;73.076;2022-07-15T00:53:29;20.98;78.41
72355;SHT30;60314;55.040;73.076;2022-07-15T00:56:08;20.96;77.61
72355;SHT30;60314;55.040;73.076;2022-07-15T00:58:40;20.82;79.23
72355;SHT30;60314;55.040;73.076;2022-07-15T01:01:08;20.98;78.78
72355;SHT30;60314;55.040;73.076;2022-07-15T01:03:34;21.18;77.63
72355;SHT30;60314;55.040;73.076;2022-07-15T01:06:01;21.03;77.67
72355;SHT30;60314;55.040;73.076;2022-07-15T01:08:29;20.96;77.69
72355;SHT30;60314;55.040;73.076;2022-07-15T01:10:56;20.85;78.32
72355;SHT30;60314;55.040;73.076;2022-07-15T01:13:26;20.82;78.31
72355;SHT30;60314;55.040;73.076;2022-07-15T01:15:53;20.76;78.52
72355;SHT30;60314;55.040;73.076;2022-07-15T01:18:27;20.80;79.60
72355;SHT30;60314;55.040;73.076;2022-07-15T01:20:55;20.80;79.07
72355;SHT30;60314;55.040;73.076;2022-07-15T01:23:22;20.78;79.03
72355;SHT30;60314;55.040;73.076;2022-07-15T01:25:58;20.85;78.74
72355;SHT30;60314;55.040;73.076;2022-07-15T01:28:27;20.99;78.43
72355;SHT30;60314;55.040;73.076;2022-07-15T01:30:55;21.20;78.23
72355;SHT30;60314;55.040;73.076;2022-07-15T01:33:23;21.16;77.26
72355;SHT30;60314;55.040;73.076;2022-07-15T01:35:57;21.26;77.41
72355;SHT30;60314;55.040;73.076;2022-07-15T01:38:28;21.34;78.03
72355;SHT30;60314;55.040;73.076;2022-07-15T01:40:59;21.39;76.87
72355;SHT30;60314;55.040;73.076;2022-07-15T01:43:26;21.53;77.66
72355;SHT30;60314;55.040;73.076;2022-07-15T01:45:53;21.61;77.77
72355;SHT30;60314;55.040;73.076;2022-07-15T01:48:28;21.84;77.25
72355;SHT30;60314;55.040;73.076;2022-07-15T01:51:53;22.16;75.09
72355;SHT30;60314;55.040;73.076;2022-07-15T01:54:25;22.36;75.17
72355;SHT30;60314;55.040;73.076;2022-07-15T01:56:53;22.29;75.36
72355;SHT30;60314;55.040;73.076;2022-07-15T01:59:21;22.45;74.23
72355;SHT30;60314;55.040;73.076;2022-07-15T02:01:54;22.62;72.84
72355;SHT30;60314;55.040;73.076;2022-07-15T02:04:22;22.55;72.93
72355;SHT30;60314;55.040;73.076;2022-07-15T02:06:49;22.48;72.87
72355;SHT30;60314;55.040;73.076;2022-07-15T02:09:17;22.69;72.80
72355;SHT30;60314;55.040;73.076;2022-07-15T02:11:46;22.91;72.61
72355;SHT30;60314;55.040;73.076;2022-07-15T02:14:15;22.87;72.63
72355;SHT30;60314;55.040;73.076;2022-07-15T02:16:43;22.86;72.70
72355;SHT30;60314;55.040;73.076;2022-07-15T02:19:14;22.97;72.95
72355;SHT30;60314;55.040;73.076;2022-07-15T02:21:42;23.17;72.45
72355;SHT30;60314;55.040;73.076;2022-07-15T02:24:08;23.11;71.63
72355;SHT30;60314;55.040;73.076;2022-07-15T02:26:36;23.23;70.88
72355;SHT30;60314;55.040;73.076;2022-07-15T02:29:03;23.07;72.15
72355;SHT30;60314;55.040;73.076;2022-07-15T02:31:30;23.18;71.62
72355;SHT30;60314;55.040;73.076;2022-07-15T02:33:57;23.45;71.10
72355;SHT30;60314;55.040;73.076;2022-07-15T02:36:27;23.50;70.46
72355;SHT30;60314;55.040;73.076;2022-07-15T02:38:55;23.58;71.71
72355;SHT30;60314;55.040;73.076;2022-07-15T02:41:23;23.71;69.94
72355;SHT30;60314;55.040;73.076;2022-07-15T02:43:50;23.68;71.32
72355;SHT30;60314;55.040;73.076;2022-07-15T02:46:17;23.66;70.81
72355;SHT30;60314;55.040;73.076;2022-07-15T02:48:45;23.79;71.29
72355;SHT30;60314;55.040;73.076;2022-07-15T02:51:13;23.90;69.54
72355;SHT30;60314;55.040;73.076;2022-07-15T02:53:41;23.86;68.89
72355;SHT30;60314;55.040;73.076;2022-07-15T02:56:12;23.65;70.38
72355;SHT30;60314;55.040;73.076;2022-07-15T02:58:41;23.78;70.34
72355;SHT30;60314;55.040;73.076;2022-07-15T03:01:08;23.89;68.40
72355;SHT30;60314;55.040;73.076;2022-07-15T03:03:37;23.86;69.95
72355;SHT30;60314;55.040;73.076;2022-07-15T03:06:06;24.20;70.34
72355;SHT30;60314;55.040;73.076;2022-07-15T03:08:47;24.27;68.35
72355;SHT30;60314;55.040;73.076;2022-07-15T03:11:14;24.36;69.56
72355;SHT30;60314;55.040;73.076;2022-07-15T03:13:41;24.33;68.97
72355;SHT30;60314;55.040;73.076;2022-07-15T03:16:09;24.37;67.69
72355;SHT30;60314;55.040;73.076;2022-07-15T03:18:37;24.53;67.63
72355;SHT30;60314;55.040;73.076;2022-07-15T03:21:04;24.63;66.68
72355;SHT30;60314;55.040;73.076;2022-07-15T03:23:31;24.41;69.25
72355;SHT30;60314;55.040;73.076;2022-07-15T03:25:58;24.64;67.84
72355;SHT30;60314;55.040;73.076;2022-07-15T03:28:26;24.96;67.58
72355;SHT30;60314;55.040;73.076;2022-07-15T03:30:55;25.01;67.63
72355;SHT30;60314;55.040;73.076;2022-07-15T03:33:22;24.85;68.08
72355;SHT30;60314;55.040;73.076;2022-07-15T03:35:49;24.84;67.97
72355;SHT30;60314;55.040;73.076;2022-07-15T03:38:18;24.74;68.16
72355;SHT30;60314;55.040;73.076;2022-07-15T03:40:45;24.95;67.26
72355;SHT30;60314;55.040;73.076;2022-07-15T03:43:11;24.96;67.70
72355;SHT30;60314;55.040;73.076;2022-07-15T03:45:39;24.87;66.92
72355;SHT30;60314;55.040;73.076;2022-07-15T03:48:07;24.75;67.38
72355;SHT30;60314;55.040;73.076;2022-07-15T03:50:36;24.57;68.21
72355;SHT30;60314;55.040;73.076;2022-07-15T03:53:02;24.67;67.83
72355;SHT30;60314;55.040;73.076;2022-07-15T03:55:29;24.77;68.74
72355;SHT30;60314;55.040;73.076;2022-07-15T03:57:57;24.74;68.88
72355;SHT30;60314;55.040;73.076;2022-07-15T04:00:24;24.44;68.78
72355;SHT30;60314;55.040;73.076;2022-07-15T04:02:51;24.27;69.25
72355;SHT30;60314;55.040;73.076;2022-07-15T04:05:17;24.40;69.76
72355;SHT30;60314;55.040;73.076;2022-07-15T04:07:44;24.34;68.79
72355;SHT30;60314;55.040;73.076;2022-07-15T04:10:12;24.27;69.29
72355;SHT30;60314;55.040;73.076;2022-07-15T04:12:45;24.19;70.41
72355;SHT30;60314;55.040;73.076;2022-07-15T04:15:13;24.09;70.27
72355;SHT30;60314;55.040;73.076;2022-07-15T04:17:46;24.13;70.28
72355;SHT30;60314;55.040;73.076;2022-07-15T04:20:16;24.26;70.25
72355;SHT30;60314;55.040;73.076;2022-07-15T04:22:46;24.30;70.07
72355;SHT30;60314;55.040;73.076;2022-07-15T04:25:16;24.20;69.84
72355;SHT30;60314;55.040;73.076;2022-07-15T04:27:44;24.05;70.87
72355;SHT30;60314;55.040;73.076;2022-07-15T04:30:11;24.06;70.87
72355;SHT30;60314;55.040;73.076;2022-07-15T04:32:46;24.36;70.39
72355;SHT30;60314;55.040;73.076;2022-07-15T04:35:13;24.53;69.45
72355;SHT30;60314;55.040;73.076;2022-07-15T04:37:40;24.37;68.74
72355;SHT30;60314;55.040;73.076;2022-07-15T04:40:08;24.56;69.92
72355;SHT30;60314;55.040;73.076;2022-07-15T04:42:39;24.87;68.96
72355;SHT30;60314;55.040;73.076;2022-07-15T04:45:10;25.02;68.99
72355;SHT30;60314;55.040;73.076;2022-07-15T04:47:38;25.05;67.33
72355;SHT30;60314;55.040;73.076;2022-07-15T04:50:08;25.02;68.14
72355;SHT30;60314;55.040;73.076;2022-07-15T04:52:54;24.84;67.87
72355;SHT30;60314;55.040;73.076;2022-07-15T04:55:22;24.68;68.98
72355;SHT30;60314;55.040;73.076;2022-07-15T04:57:57;24.61;68.33
72355;SHT30;60314;55.040;73.076;2022-07-15T05:00:26;24.47;69.23
72355;SHT30;60314;55.040;73.076;2022-07-15T05:03:14;24.74;68.95
72355;SHT30;60314;55.040;73.076;2022-07-15T05:05:41;24.43;68.49
72355;SHT30;60314;55.040;73.076;2022-07-15T05:08:25;24.39;67.90
72355;SHT30;60314;55.040;73.076;2022-07-15T05:10:59;24.30;69.11
72355;SHT30;60314;55.040;73.076;2022-07-15T05:13:31;24.33;69.58
72355;SHT30;60314;55.040;73.076;2022-07-15T05:16:00;24.30;69.28
72355;SHT30;60314;55.040;73.076;2022-07-15T05:18:27;24.30;69.77
72355;SHT30;60314;55.040;73.076;2022-07-15T05:20:56;24.33;69.38
72355;SHT30;60314;55.040;73.076;2022-07-15T05:23:26;24.49;67.92
72355;SHT30;60314;55.040;73.076;2022-07-15T05:25:58;24.59;67.82
72355;SHT30;60314;55.040;73.076;2022-07-15T05:28:24;24.64;68.61
72355;SHT30;60314;55.040;73.076;2022-07-15T05:30:51;24.70;68.35
72355;SHT30;60314;55.040;73.076;2022-07-15T05:33:18;24.53;68.12
72355;SHT30;60314;55.040;73.076;2022-07-15T05:35:46;24.43;68.92
72355;SHT30;60314;55.040;73.076;2022-07-15T05:38:13;24.32;69.26
72355;SHT30;60314;55.040;73.076;2022-07-15T05:40:41;24.33;68.76
72355;SHT30;60314;55.040;73.076;2022-07-15T05:43:09;24.37;68.99
72355;SHT30;60314;55.040;73.076;2022-07-15T05:45:39;24.44;69.91
72355;SHT30;60314;55.040;73.076;2022-07-15T05:48:08;24.33;69.05
72355;SHT30;60314;55.040;73.076;2022-07-15T05:50:42;24.23;69.75
72355;SHT30;60314;55.040;73.076;2022-07-15T05:53:12;24.29;69.77
72355;SHT30;60314;55.040;73.076;2022-07-15T05:55:39;24.06;69.70
72355;SHT30;60314;55.040;73.076;2022-07-15T05:58:09;23.99;70.29
72355;SHT30;60314;55.040;73.076;2022-07-15T06:00:38;23.86;70.18
72355;SHT30;60314;55.040;73.076;2022-07-15T06:03:05;23.73;70.67
72355;SHT30;60314;55.040;73.076;2022-07-15T06:05:37;23.66;72.12
72355;SHT30;60314;55.040;73.076;2022-07-15T06:08:04;23.78;71.89
72355;SHT30;60314;55.040;73.076;2022-07-15T06:10:34;23.64;72.15
72355;SHT30;60314;55.040;73.076;2022-07-15T06:13:01;23.54;71.35
72355;SHT30;60314;55.040;73.076;2022-07-15T06:15:29;23.55;72.88
72355;SHT30;60314;55.040;73.076;2022-07-15T06:17:57;23.65;72.63
72355;SHT30;60314;55.040;73.076;2022-07-15T06:20:27;23.66;72.63
72355;SHT30;60314;55.040;73.076;2022-07-15T06:22:54;23.54;72.29
72355;SHT30;60314;55.040;73.076;2022-07-15T06:25:22;23.59;72.53
72355;SHT30;60314;55.040;73.076;2022-07-15T06:27:51;23.62;72.69
72355;SHT30;60314;55.040;73.076;2022-07-15T06:30:23;23.45;72.53
72355;SHT30;60314;55.040;73.076;2022-07-15T06:32:50;23.25;73.44
72355;SHT30;60314;55.040;73.076;2022-07-15T06:35:17;23.21;73.22
72355;SHT30;60314;55.040;73.076;2022-07-15T06:37:43;23.06;73.40
72355;SHT30;60314;55.040;73.076;2022-07-15T06:40:10;22.91;73.48
72355;SHT30;60314;55.040;73.076;2022-07-15T06:42:37;22.90;73.97
72355;SHT30;60314;55.040;73.076;2022-07-15T06:45:07;22.96;73.55
72355;SHT30;60314;55.040;73.076;2022-07-15T06:47:44;22.87;74.42
72355;SHT30;60314;55.040;73.076;2022-07-15T06:50:10;22.84;73.03
72355;SHT30;60314;55.040;73.076;2022-07-15T06:52:40;22.73;73.26
72355;SHT30;60314;55.040;73.076;2022-07-15T06:55:08;22.66;73.88
72355;SHT30;60314;55.040;73.076;2022-07-15T06:57:35;22.72;73.62
72355;SHT30;60314;55.040;73.076;2022-07-15T07:00:07;22.74;73.93
72355;SHT30;60314;55.040;73.076;2022-07-15T07:02:38;22.77;73.52
72355;SHT30;60314;55.040;73.076;2022-07-15T07:05:05;22.89;73.29
72355;SHT30;60314;55.040;73.076;2022-07-15T07:07:32;23.03;72.31
72355;SHT30;60314;55.040;73.076;2022-07-15T07:09:58;23.31;71.73
72355;SHT30;60314;55.040;73.076;2022-07-15T07:12:26;23.35;70.39
72355;SHT30;60314;55.040;73.076;2022-07-15T07:14:52;23.44;70.48
72355;SHT30;60314;55.040;73.076;2022-07-15T07:17:20;23.57;69.82
72355;SHT30;60314;55.040;73.076;2022-07-15T07:19:56;23.86;69.33
72355;SHT30;60314;55.040;73.076;2022-07-15T07:22:23;24.02;69.08
72355;SHT30;60314;55.040;73.076;2022-07-15T07:24:49;24.06;68.96
72355;SHT30;60314;55.040;73.076;2022-07-15T07:27:17;24.02;68.45
72355;SHT30;60314;55.040;73.076;2022-07-15T07:29:44;24.10;68.28
72355;SHT30;60314;55.040;73.076;2022-07-15T07:32:10;24.34;67.54
72355;SHT30;60314;55.040;73.076;2022-07-15T07:34:37;24.50;68.09
72355;SHT30;60314;55.040;73.076;2022-07-15T07:37:22;24.40;65.68
72355;SHT30;60314;55.040;73.076;2022-07-15T07:39:49;24.70;65.84
72355;SHT30;60314;55.040;73.076;2022-07-15T07:42:16;24.71;66.25
72355;SHT30;60314;55.040;73.076;2022-07-15T07:44:43;24.61;65.96
72355;SHT30;60314;55.040;73.076;2022-07-15T07:47:09;24.60;65.23
72355;SHT30;60314;55.040;73.076;2022-07-15T07:49:36;24.71;66.60
72355;SHT30;60314;55.040;73.076;2022-07-15T07:52:03;24.75;65.49
72355;SHT30;60314;55.040;73.076;2022-07-15T07:54:30;24.57;64.74
72355;SHT30;60314;55.040;73.076;2022-07-15T07:56:58;24.75;64.04
72355;SHT30;60314;55.040;73.076;2022-07-15T07:59:25;24.85;62.11
72355;SHT30;60314;55.040;73.076;2022-07-15T08:01:52;24.75;60.11
72355;SHT30;60314;55.040;73.076;2022-07-15T08:04:19;24.80;62.77
72355;SHT30;60314;55.040;73.076;2022-07-15T08:06:46;24.84;63.18
72355;SHT30;60314;55.040;73.076;2022-07-15T08:09:12;24.88;63.02
72355;SHT30;60314;55.040;73.076;2022-07-15T08:11:39;24.81;61.12
72355;SHT30;60314;55.040;73.076;2022-07-15T08:14:06;24.88;61.86
72355;SHT30;60314;55.040;73.076;2022-07-15T08:16:42;24.94;62.14
72355;SHT30;60314;55.040;73.076;2022-07-15T08:19:11;25.12;60.96
72355;SHT30;60314;55.040;73.076;2022-07-15T08:21:43;25.34;61.34
72355;SHT30;60314;55.040;73.076;2022-07-15T08:24:10;25.15;61.90
72355;SHT30;60314;55.040;73.076;2022-07-15T08:26:39;24.99;58.07
72355;SHT30;60314;55.040;73.076;2022-07-15T08:29:06;24.98;58.56
72355;SHT30;60314;55.040;73.076;2022-07-15T08:31:36;25.04;60.31
72355;SHT30;60314;55.040;73.076;2022-07-15T08:34:03;24.99;60.97
72355;SHT30;60314;55.040;73.076;2022-07-15T08:36:31;24.88;61.21
72355;SHT30;60314;55.040;73.076;2022-07-15T08:39:07;25.01;62.15
72355;SHT30;60314;55.040;73.076;2022-07-15T08:41:35;25.24;56.95
72355;SHT30;60314;55.040;73.076;2022-07-15T08:44:08;25.24;58.91
72355;SHT30;60314;55.040;73.076;2022-07-15T08:46:50;25.12;59.15
72355;SHT30;60314;55.040;73.076;2022-07-15T08:49:21;25.11;58.37
72355;SHT30;60314;55.040;73.076;2022-07-15T08:51:51;25.21;57.44
72355;SHT30;60314;55.040;73.076;2022-07-15T08:54:22;25.21;58.62
72355;SHT30;60314;55.040;73.076;2022-07-15T08:56:59;25.21;58.36
72355;SHT30;60314;55.040;73.076;2022-07-15T08:59:27;25.24;56.50
72355;SHT30;60314;55.040;73.076;2022-07-15T09:01:53;25.22;56.13
72355;SHT30;60314;55.040;73.076;2022-07-15T09:04:30;25.32;59.05
72355;SHT30;60314;55.040;73.076;2022-07-15T09:07:07;25.36;58.82
72355;SHT30;60314;55.040;73.076;2022-07-15T09:09:35;25.36;56.91
72355;SHT30;60314;55.040;73.076;2022-07-15T09:12:08;25.38;57.80
72355;SHT30;60314;55.040;73.076;2022-07-15T09:14:37;25.49;57.82
72355;SHT30;60314;55.040;73.076;2022-07-15T09:22:53;25.63;57.77
72355;SHT30;60314;55.040;73.076;2022-07-15T09:25:28;25.66;58.05
72355;SHT30;60314;55.040;73.076;2022-07-15T09:28:06;25.74;58.08
72355;SHT30;60314;55.040;73.076;2022-07-15T09:30:40;25.65;55.66
72355;SHT30;60314;55.040;73.076;2022-07-15T09:33:26;25.63;56.80
72355;SHT30;60314;55.040;73.076;2022-07-15T09:36:24;25.70;55.22
72355;SHT30;60314;55.040;73.076;2022-07-15T09:38:57;25.70;57.56
72355;SHT30;60314;55.040;73.076;2022-07-15T09:41:36;25.80;57.49
72355;SHT30;60314;55.040;73.076;2022-07-15T09:44:22;25.87;56.34
72355;SHT30;60314;55.040;73.076;2022-07-15T09:47:00;25.92;56.34
72355;SHT30;60314;55.040;73.076;2022-07-15T09:52:04;25.72;54.83
72355;SHT30;60314;55.040;73.076;2022-07-15T09:54:40;25.69;56.08
72355;SHT30;60314;55.040;73.076;2022-07-15T09:57:09;25.76;55.69
72355;SHT30;60314;55.040;73.076;2022-07-15T09:59:36;25.59;54.68
72355;SHT30;60314;55.040;73.076;2022-07-15T10:02:03;25.62;53.95
72355;SHT30;60314;55.040;73.076;2022-07-15T10:04:30;25.67;54.63
72355;SHT30;60314;55.040;73.076;2022-07-15T10:07:07;25.73;53.42
72355;SHT30;60314;55.040;73.076;2022-07-15T10:09:35;25.82;55.06
72355;SHT30;60314;55.040;73.076;2022-07-15T10:12:19;25.87;53.27
72355;SHT30;60314;55.040;73.076;2022-07-15T10:15:00;25.83;51.87
72355;SHT30;60314;55.040;73.076;2022-07-15T10:28:31;26.24;51.44
72355;SHT30;60314;55.040;73.076;2022-07-15T10:31:23;26.33;50.88
72355;SHT30;60314;55.040;73.076;2022-07-15T10:39:14;26.10;52.24
72355;SHT30;60314;55.040;73.076;2022-07-15T10:42:01;25.92;52.56
72355;SHT30;60314;55.040;73.076;2022-07-15T10:44:35;25.76;53.62
72355;SHT30;60314;55.040;73.076;2022-07-15T10:49:40;25.93;52.25
72355;SHT30;60314;55.040;73.076;2022-07-15T10:52:26;25.96;51.35
72355;SHT30;60314;55.040;73.076;2022-07-15T11:03:09;26.18;50.52
72355;SHT30;60314;55.040;73.076;2022-07-15T11:06:01;26.28;51.91
72355;SHT30;60314;55.040;73.076;2022-07-15T11:13:49;26.16;52.76
72355;SHT30;60314;55.040;73.076;2022-07-15T11:16:21;26.18;51.74
72355;SHT30;60314;55.040;73.076;2022-07-15T11:18:56;26.25;53.35
72355;SHT30;60314;55.040;73.076;2022-07-15T11:21:25;26.23;51.49
72355;SHT30;60314;55.040;73.076;2022-07-15T11:23:52;26.28;50.22
72355;SHT30;60314;55.040;73.076;2022-07-15T11:26:47;26.28;51.59
72355;SHT30;60314;55.040;73.076;2022-07-15T11:29:20;26.23;50.89
72355;SHT30;60314;55.040;73.076;2022-07-15T11:31:48;26.13;49.35
72355;SHT30;60314;55.040;73.076;2022-07-15T11:34:15;26.07;49.40
72355;SHT30;60314;55.040;73.076;2022-07-15T11:36:58;26.12;50.45
72355;SHT30;60314;55.040;73.076;2022-07-15T11:39:28;26.08;51.39
72355;SHT30;60314;55.040;73.076;2022-07-15T11:42:04;26.08;51.91
72355;SHT30;60314;55.040;73.076;2022-07-15T11:44:50;26.06;51.74
72355;SHT30;60314;55.040;73.076;2022-07-15T11:47:17;26.00;52.86
72355;SHT30;60314;55.040;73.076;2022-07-15T11:49:44;25.93;51.43
72355;SHT30;60314;55.040;73.076;2022-07-15T11:52:22;26.06;52.14
72355;SHT30;60314;55.040;73.076;2022-07-15T11:54:49;26.12;51.57
72355;SHT30;60314;55.040;73.076;2022-07-15T11:57:16;26.23;51.93
72355;SHT30;60314;55.040;73.076;2022-07-15T11:59:55;26.28;50.26
72355;SHT30;60314;55.040;73.076;2022-07-15T12:02:27;26.35;51.36
72355;SHT30;60314;55.040;73.076;2022-07-15T12:05:04;26.44;51.11
72355;SHT30;60314;55.040;73.076;2022-07-15T12:07:47;26.51;51.10
72355;SHT30;60314;55.040;73.076;2022-07-15T12:10:15;26.45;50.87
72355;SHT30;60314;55.040;73.076;2022-07-15T12:13:03;26.49;51.78
72355;SHT30;60314;55.040;73.076;2022-07-15T12:15:34;26.49;52.56
72355;SHT30;60314;55.040;73.076;2022-07-15T12:18:02;26.31;52.85
72355;SHT30;60314;55.040;73.076;2022-07-15T12:20:29;26.21;53.73
72355;SHT30;60314;55.040;73.076;2022-07-15T12:23:09;26.12;55.01
72355;SHT30;60314;55.040;73.076;2022-07-15T12:25:45;26.08;56.33
72355;SHT30;60314;55.040;73.076;2022-07-15T12:28:28;25.96;56.38
72355;SHT30;60314;55.040;73.076;2022-07-15T12:30:55;25.90;57.01
72355;SHT30;60314;55.040;73.076;2022-07-15T12:33:22;25.92;56.48
72355;SHT30;60314;55.040;73.076;2022-07-15T12:35:49;25.86;56.34
72355;SHT30;60314;55.040;73.076;2022-07-15T12:38:26;25.90;55.63
72355;SHT30;60314;55.040;73.076;2022-07-15T12:41:09;25.90;56.42
72355;SHT30;60314;55.040;73.076;2022-07-15T12:43:51;25.93;55.65
72355;SHT30;60314;55.040;73.076;2022-07-15T12:47:00;25.97;55.23
72355;SHT30;60314;55.040;73.076;2022-07-15T12:49:41;25.96;55.43
72355;SHT30;60314;55.040;73.076;2022-07-15T12:52:20;25.86;54.92
72355;SHT30;60314;55.040;73.076;2022-07-15T12:54:49;25.87;55.09
72355;SHT30;60314;55.040;73.076;2022-07-15T12:57:20;25.86;54.60
72355;SHT30;60314;55.040;73.076;2022-07-15T12:59:58;25.89;55.76
72355;SHT30;60314;55.040;73.076;2022-07-15T13:02:26;25.89;56.01
72355;SHT30;60314;55.040;73.076;2022-07-15T13:04:53;25.92;56.11
72355;SHT30;60314;55.040;73.076;2022-07-15T13:07:19;25.93;56.18
72355;SHT30;60314;55.040;73.076;2022-07-15T13:09:56;25.94;55.56
72355;SHT30;60314;55.040;73.076;2022-07-15T13:12:23;25.80;56.87
72355;SHT30;60314;55.040;73.076;2022-07-15T13:14:50;25.59;57.15
72355;SHT30;60314;55.040;73.076;2022-07-15T13:17:25;25.39;58.26
72355;SHT30;60314;55.040;73.076;2022-07-15T13:19:51;25.21;58.41
72355;SHT30;60314;55.040;73.076;2022-07-15T13:22:18;25.16;59.05
72355;SHT30;60314;55.040;73.076;2022-07-15T13:24:45;25.14;58.97
72355;SHT30;60314;55.040;73.076;2022-07-15T13:27:14;25.15;58.61
72355;SHT30;60314;55.040;73.076;2022-07-15T13:29:50;25.16;58.89
72355;SHT30;60314;55.040;73.076;2022-07-15T13:32:17;25.16;57.42
72355;SHT30;60314;55.040;73.076;2022-07-15T13:34:48;25.19;57.98
72355;SHT30;60314;55.040;73.076;2022-07-15T13:37:20;25.22;57.84
72355;SHT30;60314;55.040;73.076;2022-07-15T13:39:47;25.29;57.56
72355;SHT30;60314;55.040;73.076;2022-07-15T13:42:19;25.28;57.69
72355;SHT30;60314;55.040;73.076;2022-07-15T13:44:46;25.24;57.82
72355;SHT30;60314;55.040;73.076;2022-07-15T13:47:23;25.18;58.42
72355;SHT30;60314;55.040;73.076;2022-07-15T13:49:50;25.12;58.98
72355;SHT30;60314;55.040;73.076;2022-07-15T13:52:44;25.02;59.76
72355;SHT30;60314;55.040;73.076;2022-07-15T13:55:12;24.98;59.43
72355;SHT30;60314;55.040;73.076;2022-07-15T13:57:38;24.92;59.93
72355;SHT30;60314;55.040;73.076;2022-07-15T14:00:18;24.91;59.95
72355;SHT30;60314;55.040;73.076;2022-07-15T14:02:49;24.85;59.62
72355;SHT30;60314;55.040;73.076;2022-07-15T14:05:16;24.80;59.41
72355;SHT30;60314;55.040;73.076;2022-07-15T14:07:43;24.73;59.93
72355;SHT30;60314;55.040;73.076;2022-07-15T14:10:14;24.77;60.70
72355;SHT30;60314;55.040;73.076;2022-07-15T14:12:41;24.74;60.54
72355;SHT30;60314;55.040;73.076;2022-07-15T14:15:08;24.80;60.70
72355;SHT30;60314;55.040;73.076;2022-07-15T14:17:35;24.80;60.59
72355;SHT30;60314;55.040;73.076;2022-07-15T14:20:06;24.75;60.51
72355;SHT30;60314;55.040;73.076;2022-07-15T14:22:33;24.75;60.78
72355;SHT30;60314;55.040;73.076;2022-07-15T14:24:59;24.67;60.75
72355;SHT30;60314;55.040;73.076;2022-07-15T14:27:30;24.57;60.87
72355;SHT30;60314;55.040;73.076;2022-07-15T14:29:57;24.49;61.28
72355;SHT30;60314;55.040;73.076;2022-07-15T14:32:23;24.37;61.91
72355;SHT30;60314;55.040;73.076;2022-07-15T14:35:00;24.29;61.89
72355;SHT30;60314;55.040;73.076;2022-07-15T14:37:27;24.22;61.73
72355;SHT30;60314;55.040;73.076;2022-07-15T14:39:54;24.13;62.03
72355;SHT30;60314;55.040;73.076;2022-07-15T14:42:31;24.02;61.86
72355;SHT30;60314;55.040;73.076;2022-07-15T14:45:08;23.98;62.07
72355;SHT30;60314;55.040;73.076;2022-07-15T14:47:34;23.90;62.07
72355;SHT30;60314;55.040;73.076;2022-07-15T14:50:03;23.89;62.07
72355;SHT30;60314;55.040;73.076;2022-07-15T14:52:30;23.79;62.25
72355;SHT30;60314;55.040;73.076;2022-07-15T14:55:02;23.79;62.28
72355;SHT30;60314;55.040;73.076;2022-07-15T14:57:29;23.69;62.57
72355;SHT30;60314;55.040;73.076;2022-07-15T14:59:55;23.64;62.94
72355;SHT30;60314;55.040;73.076;2022-07-15T15:02:22;23.62;62.75
72355;SHT30;60314;55.040;73.076;2022-07-15T15:04:50;23.62;63.07
72355;SHT30;60314;55.040;73.076;2022-07-15T15:07:21;23.61;63.22
72355;SHT30;60314;55.040;73.076;2022-07-15T15:09:48;23.55;62.96
72355;SHT30;60314;55.040;73.076;2022-07-15T15:12:18;23.54;63.40
72355;SHT30;60314;55.040;73.076;2022-07-15T15:14:45;23.51;63.29
72355;SHT30;60314;55.040;73.076;2022-07-15T15:17:16;23.48;63.45
72355;SHT30;60314;55.040;73.076;2022-07-15T15:19:43;23.41;63.47
72355;SHT30;60314;55.040;73.076;2022-07-15T15:22:10;23.38;63.70
72355;SHT30;60314;55.040;73.076;2022-07-15T15:24:38;23.34;63.39
72355;SHT30;60314;55.040;73.076;2022-07-15T15:27:05;23.30;64.15
72355;SHT30;60314;55.040;73.076;2022-07-15T15:29:33;23.15;64.70
72355;SHT30;60314;55.040;73.076;2022-07-15T15:32:00;23.10;64.73
72355;SHT30;60314;55.040;73.076;2022-07-15T15:34:26;22.97;64.49
72355;SHT30;60314;55.040;73.076;2022-07-15T15:36:56;22.93;64.69
72355;SHT30;60314;55.040;73.076;2022-07-15T15:39:22;22.90;64.52
72355;SHT30;60314;55.040;73.076;2022-07-15T15:41:59;22.82;64.44
72355;SHT30;60314;55.040;73.076;2022-07-15T15:44:26;22.77;64.52
72355;SHT30;60314;55.040;73.076;2022-07-15T15:46:52;22.76;65.54
72355;SHT30;60314;55.040;73.076;2022-07-15T15:49:19;22.67;65.32
72355;SHT30;60314;55.040;73.076;2022-07-15T15:51:45;22.62;64.75
72355;SHT30;60314;55.040;73.076;2022-07-15T15:54:12;22.55;65.93
72355;SHT30;60314;55.040;73.076;2022-07-15T15:56:39;22.50;65.86
72355;SHT30;60314;55.040;73.076;2022-07-15T15:59:05;22.49;65.20
72355;SHT30;60314;55.040;73.076;2022-07-15T16:01:33;22.45;65.35
72355;SHT30;60314;55.040;73.076;2022-07-15T16:04:00;22.42;65.52
72355;SHT30;60314;55.040;73.076;2022-07-15T16:06:27;22.41;66.08
72355;SHT30;60314;55.040;73.076;2022-07-15T16:08:54;22.35;66.68
72355;SHT30;60314;55.040;73.076;2022-07-15T16:11:21;22.23;66.76
72355;SHT30;60314;55.040;73.076;2022-07-15T16:13:48;22.19;67.13
72355;SHT30;60314;55.040;73.076;2022-07-15T16:16:15;22.12;66.66